Time,TemperatureF,DewpointF,PressureIn,WindDirection,WindDirectionDegrees,WindSpeedMPH,WindSpeedGustMPH,Humidity,HourlyPrecipIn,Conditions,Clouds,dailyrainin,SolarRadiationWatts/m^2,SoftwareType,DateUTC
2013-02-12 00:02:00,32.0,-99.9,-100.00,WNW,301,8.0,14.0,0,0.00,,,0.00,22.000000,,2013-02-12 00:02:00,
2013-02-12 00:11:00,32.0,-99.9,-100.00,NW,309,10.0,17.0,0,0.00,,,0.00,4.000000,,2013-02-12 00:11:00,
2013-02-12 00:32:00,32.0,-99.9,-100.00,NW,309,10.0,17.0,0,0.00,,,0.00,4.000000,,2013-02-12 00:32:00,
2013-02-12 00:43:00,32.0,-99.9,-100.00,NW,309,10.0,17.0,0,0.00,,,0.00,4.000000,,2013-02-12 00:43:00,
2013-02-12 00:52:00,32.0,-99.9,-100.00,NW,309,10.0,17.0,0,0.00,,,0.00,4.000000,,2013-02-12 00:52:00,
2013-02-12 01:02:00,32.0,-99.9,-100.00,NW,309,10.0,17.0,0,0.00,,,0.00,4.000000,,2013-02-12 01:02:00,
2013-02-12 01:11:00,32.0,-99.9,-100.00,NW,316,8.0,14.0,0,0.00,,,-99.99,0.000000,,2013-02-12 01:11:00,
2013-02-12 01:42:00,32.0,-99.9,-100.00,NW,316,8.0,14.0,0,0.00,,,-99.99,0.000000,,2013-02-12 01:42:00,
2013-02-12 01:52:00,32.0,-99.9,-100.00,NW,316,8.0,14.0,0,0.00,,,-99.99,0.000000,,2013-02-12 01:52:00,
2013-02-12 02:02:00,32.0,-99.9,-100.00,NW,316,8.0,14.0,0,0.00,,,-99.99,0.000000,,2013-02-12 02:02:00,
2013-02-12 02:11:00,32.0,-99.9,-100.00,NW,304,6.0,12.0,0,0.00,,,0.00,0.000000,,2013-02-12 02:11:00,
2013-02-12 02:32:00,32.0,-99.9,-100.00,NW,304,6.0,12.0,0,0.00,,,0.00,0.000000,,2013-02-12 02:32:00,
2013-02-12 02:42:00,32.0,-99.9,-100.00,NW,304,6.0,12.0,0,0.00,,,0.00,0.000000,,2013-02-12 02:42:00,
2013-02-12 02:53:00,32.0,-99.9,-100.00,NW,304,6.0,12.0,0,0.00,,,0.00,0.000000,,2013-02-12 02:53:00,
2013-02-12 03:02:00,32.0,-99.9,-100.00,NW,304,6.0,12.0,0,0.00,,,0.00,0.000000,,2013-02-12 03:02:00,
2013-02-12 03:11:00,32.0,-99.9,-100.00,WNW,292,5.0,10.0,0,0.00,,,0.00,0.000000,,2013-02-12 03:11:00,
2013-02-12 03:32:00,32.0,-99.9,-100.00,WNW,292,5.0,10.0,0,0.00,,,0.00,0.000000,,2013-02-12 03:32:00,
2013-02-12 03:42:00,32.0,-99.9,-100.00,WNW,292,5.0,10.0,0,0.00,,,0.00,0.000000,,2013-02-12 03:42:00,
2013-02-12 03:52:00,32.0,-99.9,-100.00,WNW,292,5.0,10.0,0,0.00,,,0.00,0.000000,,2013-02-12 03:52:00,
2013-02-12 04:02:00,32.0,-99.9,-100.00,WNW,292,5.0,10.0,0,0.00,,,0.00,0.000000,,2013-02-12 04:02:00,
2013-02-12 04:11:00,32.0,-99.9,-100.00,West,279,7.0,12.0,0,0.00,,,0.00,0.000000,,2013-02-12 04:11:00,
2013-02-12 04:32:00,32.0,-99.9,-100.00,West,279,7.0,12.0,0,0.00,,,0.00,0.000000,,2013-02-12 04:32:00,
2013-02-12 04:42:00,32.0,-99.9,-100.00,West,279,7.0,12.0,0,0.00,,,0.00,0.000000,,2013-02-12 04:42:00,
2013-02-12 04:52:00,32.0,-99.9,-100.00,West,279,7.0,12.0,0,0.00,,,0.00,0.000000,,2013-02-12 04:52:00,
2013-02-12 05:02:00,32.0,-99.9,-100.00,West,279,7.0,12.0,0,0.00,,,0.00,0.000000,,2013-02-12 05:02:00,
2013-02-12 05:11:00,32.0,-99.9,-100.00,East,92,1.0,10.0,0,0.00,,,-99.99,0.000000,,2013-02-12 05:11:00,
2013-02-12 05:42:00,32.0,-99.9,-100.00,East,92,1.0,10.0,0,0.00,,,-99.99,0.000000,,2013-02-12 05:42:00,
2013-02-12 05:52:00,32.0,-99.9,-100.00,East,92,1.0,10.0,0,0.00,,,-99.99,0.000000,,2013-02-12 05:52:00,
2013-02-12 06:02:00,32.0,-99.9,-100.00,East,92,1.0,10.0,0,0.00,,,-99.99,0.000000,,2013-02-12 06:02:00,
2013-02-12 06:32:00,32.0,-99.9,-100.00,NNW,339,2.0,3.0,0,-99.99,,,0.00,0.000000,,2013-02-12 06:32:00,
2013-02-12 07:42:00,32.0,-99.9,-100.00,NNE,14,2.0,4.0,0,-99.99,,,0.00,0.000000,,2013-02-12 07:42:00,
2013-02-12 07:52:00,32.0,-99.9,-100.00,NNE,14,2.0,4.0,0,-99.99,,,0.00,0.000000,,2013-02-12 07:52:00,
2013-02-12 08:42:00,32.0,-99.9,-100.00,SSE,157,2.0,6.0,0,-99.99,,,0.00,0.000000,,2013-02-12 08:42:00,
2013-02-12 08:52:00,32.0,-99.9,-100.00,SSE,157,2.0,6.0,0,-99.99,,,0.00,0.000000,,2013-02-12 08:52:00,
2013-02-12 09:32:00,32.0,-99.9,-100.00,SE,138,4.0,7.0,0,-99.99,,,0.00,0.000000,,2013-02-12 09:32:00,
2013-02-12 10:43:00,32.0,-99.9,-100.00,SSE,161,2.0,7.0,0,-99.99,,,0.00,0.000000,,2013-02-12 10:43:00,
2013-02-12 10:52:00,32.0,-99.9,-100.00,SSE,161,2.0,7.0,0,-99.99,,,0.00,0.000000,,2013-02-12 10:52:00,
2013-02-12 11:32:00,32.0,-99.9,-100.00,SSE,160,2.0,6.0,0,-99.99,,,0.00,0.000000,,2013-02-12 11:32:00,
2013-02-12 12:32:00,32.0,-99.9,-100.00,SSE,160,3.0,7.0,0,-99.99,,,0.00,0.000000,,2013-02-12 12:32:00,
2013-02-12 13:32:00,32.0,-99.9,-100.00,South,171,2.0,6.0,0,-99.99,,,0.00,0.000000,,2013-02-12 13:32:00,
2013-02-12 14:32:00,32.0,-99.9,-100.00,SSW,192,2.0,6.0,0,-99.99,,,0.00,10.000000,,2013-02-12 14:32:00,
2013-02-12 15:32:00,32.0,-99.9,-100.00,SSW,197,4.0,6.0,0,-99.99,,,0.00,101.000000,,2013-02-12 15:32:00,
2013-02-12 16:11:00,32.0,-99.9,-100.00,WSW,257,8.0,12.0,0,0.00,,,0.00,274.000000,,2013-02-12 16:11:00,
2013-02-12 16:32:00,32.0,-99.9,-100.00,WSW,257,8.0,12.0,0,0.00,,,0.00,274.000000,,2013-02-12 16:32:00,
2013-02-12 16:42:00,32.0,-99.9,-100.00,WSW,257,8.0,12.0,0,0.00,,,0.00,274.000000,,2013-02-12 16:42:00,
2013-02-12 16:52:00,32.0,-99.9,-100.00,WSW,257,8.0,12.0,0,0.00,,,0.00,274.000000,,2013-02-12 16:52:00,
2013-02-12 17:01:00,32.0,-99.9,-100.00,WSW,257,8.0,12.0,0,0.00,,,0.00,274.000000,,2013-02-12 17:01:00,
2013-02-12 17:11:00,32.0,-99.9,-100.00,West,259,6.0,12.0,0,0.00,,,0.00,398.000000,,2013-02-12 17:11:00,
2013-02-12 17:42:00,32.0,-99.9,-100.00,West,259,6.0,12.0,0,0.00,,,0.00,398.000000,,2013-02-12 17:42:00,
2013-02-12 17:52:00,32.0,-99.9,-100.00,West,259,6.0,12.0,0,0.00,,,0.00,398.000000,,2013-02-12 17:52:00,
2013-02-12 18:02:00,32.0,-99.9,-100.00,West,259,6.0,12.0,0,0.00,,,0.00,398.000000,,2013-02-12 18:02:00,
2013-02-12 19:11:00,32.0,-99.9,-100.00,WNW,294,7.0,12.0,0,-99.99,,,-99.99,530.000000,,2013-02-12 19:11:00,
2013-02-12 19:42:00,32.0,-99.9,-100.00,WNW,294,7.0,12.0,0,-99.99,,,-99.99,530.000000,,2013-02-12 19:42:00,
2013-02-12 19:52:00,32.0,-99.9,-100.00,WNW,294,7.0,12.0,0,-99.99,,,-99.99,530.000000,,2013-02-12 19:52:00,
2013-02-12 20:02:00,32.0,-99.9,-100.00,WNW,294,7.0,12.0,0,-99.99,,,-99.99,530.000000,,2013-02-12 20:02:00,
2013-02-12 21:42:00,32.0,-99.9,-100.00,WSW,255,8.0,12.0,0,-99.99,,,0.00,449.000000,,2013-02-12 21:42:00,
2013-02-12 21:52:00,32.0,-99.9,-100.00,WSW,255,8.0,12.0,0,-99.99,,,0.00,449.000000,,2013-02-12 21:52:00,
2013-02-12 22:32:00,32.0,-99.9,-100.00,WNW,285,9.0,14.0,0,-99.99,,,0.00,339.000000,,2013-02-12 22:32:00,
2013-02-12 23:11:00,32.0,-99.9,-100.00,WNW,301,8.0,13.0,0,-99.99,,,0.00,198.000000,,2013-02-12 23:11:00,
2013-02-12 23:32:00,32.0,-99.9,-100.00,WNW,301,8.0,13.0,0,-99.99,,,0.00,198.000000,,2013-02-12 23:32:00,